Time;durP1;ratioP1;P1;durP2;ratioP2;P2;SDS_P1;SDS_P2;PMS_P1;PMS_P2;Temp;Humidity;BMP_temperature;BMP_pressure;BME280_temperature;BME280_humidity;BME280_pressure;Samples;Min_cycle;Max_cycle;Signal;HPM_P1;HPM_P2
2023/08/13 00:00:35;;;;;;;14.80;6.30;;;15.30;99.90;;;;;;5115356;28;20188;-48
2023/08/13 00:03:00;;;;;;;17.83;6.60;;;15.50;99.90;;;;;;5115070;28;20186;-48
2023/08/13 00:05:26;;;;;;;21.97;7.20;;;15.50;99.90;;;;;;5115214;28;20188;-49
2023/08/13 00:07:52;;;;;;;15.50;6.90;;;15.50;99.90;;;;;;5115021;28;20192;-49
2023/08/13 00:10:18;;;;;;;19.73;7.37;;;15.50;99.90;;;;;;5114517;28;20410;-49
2023/08/13 00:12:43;;;;;;;20.47;6.20;;;15.50;99.90;;;;;;5114689;28;20186;-49
2023/08/13 00:15:10;;;;;;;19.90;7.00;;;15.50;99.90;;;;;;5114512;28;20256;-49
2023/08/13 00:17:36;;;;;;;18.00;6.30;;;15.50;99.90;;;;;;5114917;28;20192;-49
2023/08/13 00:20:02;;;;;;;13.73;6.00;;;15.50;99.90;;;;;;5114884;28;20409;-48
2023/08/13 00:22:30;;;;;;;20.83;6.50;;;15.50;99.90;;;;;;5114313;28;20469;-49
2023/08/13 00:24:58;;;;;;;18.37;6.83;;;15.40;99.90;;;;;;5096351;28;20279;-50
2023/08/13 00:27:24;;;;;;;11.53;6.03;;;15.40;99.90;;;;;;5096141;28;20554;-49
2023/08/13 00:29:49;;;;;;;18.27;6.57;;;15.40;99.90;;;;;;5114649;28;20612;-49
2023/08/13 00:32:15;;;;;;;23.17;6.60;;;15.40;99.90;;;;;;5114099;28;20184;-49
2023/08/13 00:34:40;;;;;;;16.60;6.50;;;15.40;99.90;;;;;;5114271;28;20210;-49
2023/08/13 00:37:06;;;;;;;12.37;6.17;;;15.40;99.90;;;;;;5114465;28;20184;-49
2023/08/13 00:39:32;;;;;;;18.67;6.30;;;15.40;99.90;;;;;;5114254;28;20215;-49
2023/08/13 00:41:57;;;;;;;16.17;6.20;;;15.30;99.90;;;;;;5113812;28;20204;-49
2023/08/13 00:44:23;;;;;;;14.97;7.33;;;15.40;99.90;;;;;;5114456;28;20182;-52
2023/08/13 00:46:50;;;;;;;13.87;5.90;;;15.40;99.90;;;;;;5114194;28;20239;-48
2023/08/13 00:49:15;;;;;;;19.57;6.90;;;15.30;99.90;;;;;;5113850;28;20422;-49
2023/08/13 00:51:42;;;;;;;14.50;5.03;;;15.30;99.90;;;;;;5113540;28;20412;-48
2023/08/13 00:54:08;;;;;;;14.07;5.80;;;15.20;99.90;;;;;;5113925;28;20522;-51
2023/08/13 00:56:35;;;;;;;10.80;6.07;;;15.20;99.90;;;;;;5114292;28;20424;-50
2023/08/13 00:59:02;;;;;;;12.00;5.70;;;15.10;99.90;;;;;;5114243;28;20437;-49
2023/08/13 01:01:28;;;;;;;13.03;5.47;;;15.10;99.90;;;;;;5113613;28;20418;-50
2023/08/13 01:03:54;;;;;;;12.63;6.00;;;15.00;99.90;;;;;;5113889;28;20448;-49
2023/08/13 01:06:43;;;;;;;10.70;5.77;;;15.00;99.90;;;;;;5114139;28;20212;-49
2023/08/13 01:09:30;;;;;;;15.60;5.23;;;15.00;99.90;;;;;;5113600;28;20179;-50
2023/08/13 01:12:22;;;;;;;18.67;6.40;;;14.90;99.90;;;;;;5113709;28;20920;-49
2023/08/13 01:15:16;;;;;;;13.33;6.07;;;14.90;99.90;;;;;;5113792;28;20414;-49
2023/08/13 01:17:43;;;;;;;10.67;5.77;;;14.90;99.90;;;;;;5113435;28;20404;-49
2023/08/13 01:20:09;;;;;;;13.43;5.90;;;14.80;99.90;;;;;;5113892;28;20508;-49
2023/08/13 01:22:44;;;;;;;15.13;5.23;;;14.80;99.90;;;;;;5113590;28;20515;-49
2023/08/13 01:25:11;;;;;;;12.10;5.90;;;14.80;99.90;;;;;;5113726;28;20247;-49
2023/08/13 01:28:02;;;;;;;15.30;5.07;;;14.70;99.90;;;;;;5113048;28;20975;-49
2023/08/13 01:30:44;;;;;;;12.43;6.30;;;14.70;99.90;;;;;;5113320;28;20451;-49
2023/08/13 01:33:14;;;;;;;10.03;5.20;;;14.60;99.90;;;;;;5113470;28;20470;-49
2023/08/13 01:35:43;;;;;;;14.33;5.90;;;14.60;99.90;;;;;;5113320;28;20465;-49
2023/08/13 01:38:10;;;;;;;13.90;5.20;;;14.60;99.90;;;;;;5113176;28;20944;-50
2023/08/13 01:40:35;;;;;;;18.60;6.00;;;14.60;99.90;;;;;;5112343;28;20741;-49
2023/08/13 01:43:01;;;;;;;11.30;5.47;;;14.70;99.90;;;;;;5112994;28;20414;-50
2023/08/13 01:45:26;;;;;;;10.27;5.47;;;14.70;99.90;;;;;;5112803;28;20175;-49
2023/08/13 01:47:52;;;;;;;18.93;5.60;;;14.70;99.90;;;;;;5113254;28;20265;-50
2023/08/13 01:50:18;;;;;;;15.03;5.57;;;14.70;99.90;;;;;;5112480;28;20648;-50
2023/08/13 01:52:43;;;;;;;17.67;5.50;;;14.70;99.90;;;;;;5112950;28;20183;-50
2023/08/13 01:55:09;;;;;;;16.53;5.00;;;14.70;99.90;;;;;;5112872;28;20191;-51
2023/08/13 01:57:35;;;;;;;17.23;5.67;;;14.70;99.90;;;;;;5112868;28;20195;-49
2023/08/13 02:00:01;;;;;;;10.30;5.17;;;14.70;99.90;;;;;;5112794;28;20425;-51
2023/08/13 02:02:26;;;;;;;10.67;4.73;;;14.80;99.90;;;;;;5112576;28;20179;-50
2023/08/13 02:04:52;;;;;;;14.77;5.77;;;14.80;99.90;;;;;;5113090;28;20187;-50
2023/08/13 02:07:17;;;;;;;13.47;5.77;;;14.90;99.90;;;;;;5112753;28;20750;-50
2023/08/13 02:09:43;;;;;;;14.20;5.63;;;14.90;99.90;;;;;;5112586;28;20263;-50
2023/08/13 02:12:08;;;;;;;17.37;5.40;;;15.00;99.90;;;;;;5112492;28;20171;-50
2023/08/13 02:14:34;;;;;;;16.73;5.30;;;15.00;99.90;;;;;;5112466;28;20184;-50
2023/08/13 02:17:00;;;;;;;12.10;5.40;;;15.00;99.90;;;;;;5112718;28;20192;-49
2023/08/13 02:19:26;;;;;;;10.77;5.37;;;15.10;99.90;;;;;;5112059;28;20557;-50
2023/08/13 02:21:51;;;;;;;11.53;5.07;;;15.10;99.90;;;;;;5112008;28;20260;-51
2023/08/13 02:24:17;;;;;;;14.83;5.53;;;15.20;99.90;;;;;;5112620;28;20445;-50
2023/08/13 02:26:43;;;;;;;8.03;4.80;;;15.20;99.90;;;;;;5112249;28;20204;-51
2023/08/13 02:29:08;;;;;;;12.60;6.13;;;15.30;99.90;;;;;;5112384;28;20184;-51
2023/08/13 02:31:34;;;;;;;11.43;5.53;;;15.30;99.90;;;;;;5112190;28;20271;-50
2023/08/13 02:33:59;;;;;;;13.60;4.97;;;15.30;99.90;;;;;;5112598;28;20184;-52
2023/08/13 02:36:25;;;;;;;12.23;5.23;;;15.20;99.90;;;;;;5112776;28;20182;-51
2023/08/13 02:38:50;;;;;;;18.30;6.00;;;15.30;99.90;;;;;;5112613;28;20636;-51
2023/08/13 02:41:16;;;;;;;14.00;6.23;;;15.30;99.90;;;;;;5112507;28;20293;-51
2023/08/13 02:43:56;;;;;;;13.87;5.70;;;15.30;99.90;;;;;;5112123;28;20219;-51
2023/08/13 02:46:23;;;;;;;11.93;5.47;;;15.30;99.90;;;;;;5112479;28;20211;-52
2023/08/13 02:48:54;;;;;;;13.93;4.70;;;15.40;99.90;;;;;;5112300;28;20434;-51
2023/08/13 02:51:19;;;;;;;11.67;4.67;;;15.40;99.90;;;;;;5111811;28;20397;-52
2023/08/13 02:53:45;;;;;;;14.00;4.40;;;15.40;99.90;;;;;;5112109;28;20489;-51
2023/08/13 02:56:11;;;;;;;13.00;4.67;;;15.50;99.90;;;;;;5112210;28;20211;-52
2023/08/13 02:58:36;;;;;;;10.30;4.60;;;15.50;99.90;;;;;;5112369;28;20180;-51
2023/08/13 03:01:02;;;;;;;12.00;4.10;;;15.50;99.90;;;;;;5111397;28;20187;-51
2023/08/13 03:03:28;;;;;;;9.33;4.30;;;15.60;99.90;;;;;;5111872;28;20191;-51
2023/08/13 03:05:54;;;;;;;10.50;4.30;;;15.60;99.90;;;;;;5112277;28;20822;-51
2023/08/13 03:08:20;;;;;;;13.20;4.57;;;15.60;99.90;;;;;;5112116;28;20183;-51
2023/08/13 03:10:45;;;;;;;12.73;4.40;;;15.60;99.90;;;;;;5111987;28;20188;-51
2023/08/13 03:13:11;;;;;;;9.87;3.60;;;15.40;99.90;;;;;;5112313;28;20180;-50
2023/08/13 03:15:37;;;;;;;16.60;4.50;;;15.40;99.90;;;;;;5111981;28;20596;-52
2023/08/13 03:18:02;;;;;;;16.67;4.50;;;15.30;99.90;;;;;;5112040;28;20205;-51
2023/08/13 03:20:28;;;;;;;12.87;4.13;;;15.30;99.90;;;;;;5111979;28;20189;-52
2023/08/13 03:22:53;;;;;;;16.23;4.40;;;15.20;99.90;;;;;;5111794;28;20234;-52
2023/08/13 03:25:19;;;;;;;16.60;4.40;;;15.10;99.90;;;;;;5111951;28;20211;-51
2023/08/13 03:27:46;;;;;;;11.50;4.13;;;15.10;99.90;;;;;;5111365;28;20242;-51
2023/08/13 03:30:11;;;;;;;8.40;4.10;;;15.10;99.90;;;;;;5112027;28;20186;-53
2023/08/13 03:32:37;;;;;;;10.73;3.90;;;15.10;99.90;;;;;;5097347;28;20410;-50
2023/08/13 03:35:03;;;;;;;15.73;4.30;;;15.00;99.90;;;;;;5115757;28;20265;-51
2023/08/13 03:37:29;;;;;;;8.00;4.30;;;15.00;99.90;;;;;;5115131;28;20624;-51
2023/08/13 03:39:54;;;;;;;7.73;3.77;;;15.00;99.90;;;;;;5115470;28;20265;-51
2023/08/13 03:42:20;;;;;;;14.53;4.80;;;14.90;99.90;;;;;;5115512;28;20628;-51
2023/08/13 03:44:45;;;;;;;5.93;4.17;;;15.00;99.90;;;;;;5115764;28;21263;-51
2023/08/13 03:47:11;;;;;;;9.47;4.40;;;14.90;99.90;;;;;;5115314;28;20216;-50
2023/08/13 03:49:36;;;;;;;12.90;4.30;;;14.90;99.90;;;;;;5115056;28;20187;-51
2023/08/13 03:52:02;;;;;;;13.30;4.13;;;14.80;99.90;;;;;;5115202;28;20647;-51
2023/08/13 03:54:29;;;;;;;12.60;4.30;;;14.80;99.90;;;;;;5115675;28;20179;-50
2023/08/13 03:56:54;;;;;;;10.53;3.97;;;14.70;99.90;;;;;;5115323;28;20489;-50
2023/08/13 03:59:20;;;;;;;12.67;4.30;;;14.70;99.90;;;;;;5115012;28;20880;-52
2023/08/13 04:01:45;;;;;;;11.03;4.00;;;14.60;99.90;;;;;;5115285;28;20184;-51
2023/08/13 04:04:11;;;;;;;11.87;4.90;;;14.60;99.90;;;;;;5115135;28;20183;-51
2023/08/13 04:06:37;;;;;;;17.50;5.50;;;14.60;99.90;;;;;;5115082;28;20199;-51
2023/08/13 04:09:03;;;;;;;14.20;4.07;;;14.60;99.90;;;;;;5114731;28;20562;-50
2023/08/13 04:11:29;;;;;;;17.27;4.23;;;14.60;99.90;;;;;;5115132;28;20181;-52
2023/08/13 04:13:54;;;;;;;15.67;4.70;;;14.60;99.90;;;;;;5115117;28;20418;-51
2023/08/13 04:16:20;;;;;;;12.07;4.67;;;14.60;99.90;;;;;;5096685;28;20523;-51
2023/08/13 04:18:46;;;;;;;7.67;4.50;;;14.70;99.90;;;;;;5114498;28;20269;-52
2023/08/13 04:21:11;;;;;;;10.03;4.07;;;14.70;99.90;;;;;;5114564;28;20239;-51
2023/08/13 04:23:37;;;;;;;11.47;4.47;;;14.60;99.90;;;;;;5114801;28;20172;-51
2023/08/13 04:26:02;;;;;;;14.97;4.73;;;14.70;99.90;;;;;;5114163;28;20204;-50
2023/08/13 04:28:28;;;;;;;10.37;4.63;;;14.70;99.90;;;;;;5114463;28;20188;-51
2023/08/13 04:30:54;;;;;;;7.70;4.00;;;14.70;99.90;;;;;;5114845;28;20273;-51
2023/08/13 04:33:21;;;;;;;12.67;4.80;;;14.80;99.90;;;;;;5114632;28;20250;-51
2023/08/13 04:35:50;;;;;;;19.47;6.27;;;14.80;99.90;;;;;;5114721;28;21222;-51
2023/08/13 04:38:16;;;;;;;14.00;5.53;;;14.90;99.90;;;;;;5114501;28;20417;-50
2023/08/13 04:40:42;;;;;;;11.77;5.47;;;15.00;99.90;;;;;;5114134;28;20894;-51
2023/08/13 04:43:07;;;;;;;11.53;4.80;;;15.00;99.90;;;;;;5114029;28;20606;-51
2023/08/13 04:45:33;;;;;;;10.60;4.70;;;15.10;99.90;;;;;;5114067;28;20265;-51
2023/08/13 04:47:58;;;;;;;13.43;4.87;;;15.10;99.90;;;;;;5114380;28;20187;-51
2023/08/13 04:50:24;;;;;;;7.60;5.00;;;15.10;99.90;;;;;;5114320;28;20184;-51
2023/08/13 04:52:49;;;;;;;10.80;5.00;;;15.20;99.90;;;;;;5113653;28;20228;-51
2023/08/13 04:55:15;;;;;;;17.20;6.00;;;15.20;99.90;;;;;;5114457;28;20197;-51
2023/08/13 04:57:40;;;;;;;12.10;5.10;;;15.20;99.90;;;;;;5113876;28;20180;-50
2023/08/13 05:00:08;;;;;;;15.20;4.90;;;15.20;99.90;;;;;;5113720;28;20179;-51
2023/08/13 05:02:34;;;;;;;21.10;5.67;;;15.30;99.90;;;;;;5114041;28;20195;-51
2023/08/13 05:05:00;;;;;;;16.47;5.50;;;15.40;99.90;;;;;;5113585;28;20755;-51
2023/08/13 05:07:26;;;;;;;13.23;5.50;;;15.60;99.90;;;;;;5113775;28;20463;-50
2023/08/13 05:09:51;;;;;;;13.33;5.37;;;15.60;99.90;;;;;;5114055;28;20180;-51
2023/08/13 05:12:17;;;;;;;15.93;5.40;;;15.70;99.90;;;;;;5113332;28;20685;-51
2023/08/13 05:14:43;;;;;;;9.27;4.90;;;15.90;99.90;;;;;;5113854;28;20628;-52
2023/08/13 05:17:19;;;;;;;12.17;5.03;;;16.00;99.90;;;;;;5113973;28;20242;-51
2023/08/13 05:19:45;;;;;;;13.47;5.40;;;16.00;99.90;;;;;;5113170;28;20175;-52
2023/08/13 05:22:11;;;;;;;10.30;5.23;;;16.20;97.00;;;;;;5113114;28;21025;-51
2023/08/13 05:24:36;;;;;;;14.03;5.37;;;16.30;92.50;;;;;;5113378;28;20426;-51
2023/08/13 05:27:03;;;;;;;13.03;5.07;;;16.30;48.10;;;;;;5113521;28;20561;-50
2023/08/13 05:29:29;;;;;;;12.07;5.10;;;16.40;67.00;;;;;;5113698;28;20188;-51
2023/08/13 05:31:54;;;;;;;8.57;4.67;;;16.40;19.70;;;;;;5113953;28;20915;-51
2023/08/13 05:34:20;;;;;;;9.70;4.70;;;16.40;23.10;;;;;;5113320;28;20194;-53
2023/08/13 05:36:46;;;;;;;8.03;4.23;;;16.50;45.00;;;;;;5113589;28;20181;-51
2023/08/13 05:39:11;;;;;;;12.60;5.17;;;16.50;42.40;;;;;;5113324;28;20186;-50
2023/08/13 05:41:37;;;;;;;13.43;5.80;;;16.50;55.40;;;;;;5112877;28;20207;-52
2023/08/13 05:44:03;;;;;;;12.37;4.90;;;16.60;63.00;;;;;;5112640;28;20192;-52
2023/08/13 05:46:28;;;;;;;10.63;4.80;;;16.60;41.30;;;;;;5112777;28;20207;-51
2023/08/13 05:48:54;;;;;;;14.57;4.23;;;16.70;57.40;;;;;;5113103;28;20180;-51
2023/08/13 05:51:20;;;;;;;11.30;4.80;;;16.80;54.70;;;;;;5113280;28;20214;-50
2023/08/13 05:53:46;;;;;;;9.57;4.50;;;16.90;63.00;;;;;;5112590;28;20179;-51
2023/08/13 05:56:11;;;;;;;13.83;4.30;;;17.00;61.30;;;;;;5112744;28;20188;-51
2023/08/13 05:58:37;;;;;;;10.53;4.50;;;17.10;1.00;;;;;;5112700;28;20179;-52
2023/08/13 06:01:03;;;;;;;12.57;4.70;;;17.20;1.00;;;;;;5113043;28;20203;-50
2023/08/13 06:03:28;;;;;;;9.57;4.57;;;17.30;1.00;;;;;;5112903;28;20314;-52
2023/08/13 06:05:55;;;;;;;9.63;4.37;;;17.40;1.00;;;;;;5112882;28;20207;-51
2023/08/13 06:08:21;;;;;;;9.40;4.73;;;17.50;1.00;;;;;;5112340;28;20199;-51
2023/08/13 06:10:46;;;;;;;10.03;4.10;;;17.60;1.00;;;;;;5112931;28;20460;-51
2023/08/13 06:13:12;;;;;;;10.07;4.10;;;17.70;1.00;;;;;;5112753;28;20180;-52
2023/08/13 06:15:38;;;;;;;16.43;4.30;;;17.70;99.90;;;;;;5112357;28;20280;-52
2023/08/13 06:18:04;;;;;;;6.33;3.90;;;17.80;99.90;;;;;;5094281;28;20409;-52
2023/08/13 06:20:31;;;;;;;15.63;4.83;;;17.90;99.90;;;;;;5112185;28;20177;-52
2023/08/13 06:22:57;;;;;;;13.03;4.20;;;17.90;1.00;;;;;;5112237;28;20972;-50
2023/08/13 06:25:22;;;;;;;11.90;5.20;;;17.80;1.00;;;;;;5112908;28;20410;-51
2023/08/13 06:27:48;;;;;;;13.73;4.93;;;17.90;99.90;;;;;;5112164;28;20677;-51
2023/08/13 06:30:13;;;;;;;11.90;6.03;;;18.10;99.90;;;;;;5112654;28;20183;-51
2023/08/13 06:32:39;;;;;;;12.03;6.00;;;18.50;99.90;;;;;;5112327;28;20170;-52
2023/08/13 06:35:05;;;;;;;12.30;5.80;;;18.80;1.00;;;;;;5112157;28;20219;-51
2023/08/13 06:37:31;;;;;;;16.43;5.77;;;19.00;1.00;;;;;;5112281;28;20194;-51
2023/08/13 06:39:56;;;;;;;12.90;5.37;;;19.30;99.90;;;;;;5112463;28;20522;-52
2023/08/13 06:42:23;;;;;;;10.10;4.40;;;19.60;1.00;;;;;;5111995;28;20180;-52
2023/08/13 06:44:48;;;;;;;9.57;4.20;;;19.90;99.90;;;;;;5112093;28;20192;-51
2023/08/13 06:47:14;;;;;;;8.37;4.60;;;20.10;99.90;;;;;;5112364;28;20469;-51
2023/08/13 06:49:40;;;;;;;10.43;3.93;;;20.40;91.80;;;;;;5112020;28;20656;-51
2023/08/13 06:52:06;;;;;;;11.43;4.43;;;20.70;91.80;;;;;;5111897;28;20187;-52
2023/08/13 06:54:32;;;;;;;8.90;3.97;;;20.90;30.70;;;;;;5112026;28;20177;-51
2023/08/13 06:56:58;;;;;;;11.07;4.27;;;21.10;1.00;;;;;;5112306;28;20422;-51
2023/08/13 06:59:24;;;;;;;11.10;4.00;;;21.20;1.00;;;;;;5112336;28;20425;-51
2023/08/13 07:01:50;;;;;;;8.60;4.60;;;21.20;1.00;;;;;;5112255;28;20210;-51
2023/08/13 07:04:16;;;;;;;11.80;4.00;;;21.40;1.00;;;;;;5112350;28;20211;-51
2023/08/13 07:06:42;;;;;;;12.23;3.50;;;21.70;1.00;;;;;;5115246;28;20458;-51
2023/08/13 07:09:07;;;;;;;11.37;3.07;;;21.90;1.00;;;;;;5116123;28;20414;-50
2023/08/13 07:11:33;;;;;;;10.90;3.60;;;22.20;1.00;;;;;;5116291;28;20575;-51
2023/08/13 07:13:59;;;;;;;7.53;3.37;;;22.30;1.00;;;;;;5116344;28;20200;-51
2023/08/13 07:16:24;;;;;;;13.13;3.70;;;22.20;1.00;;;;;;5116035;28;20191;-51
2023/08/13 07:18:50;;;;;;;10.27;3.57;;;22.40;1.00;;;;;;5116157;28;20173;-51
2023/08/13 07:21:16;;;;;;;6.60;3.50;;;22.40;1.00;;;;;;5115106;28;20290;-52
2023/08/13 07:23:42;;;;;;;6.40;3.40;;;22.50;1.00;;;;;;5115741;28;20501;-51
2023/08/13 07:26:08;;;;;;;11.60;3.27;;;22.50;1.00;;;;;;5115522;28;20228;-51
2023/08/13 07:28:38;;;;;;;10.10;3.53;;;22.70;1.00;;;;;;5115522;28;20701;-53
2023/08/13 07:31:04;;;;;;;8.67;3.53;;;22.90;1.00;;;;;;5115916;28;20604;-51
2023/08/13 07:33:34;;;;;;;7.97;3.47;;;22.90;1.00;;;;;;5115801;28;20410;-51
2023/08/13 07:36:00;;;;;;;7.30;3.33;;;23.00;1.00;;;;;;5115370;28;20656;-51
2023/08/13 07:38:26;;;;;;;11.07;3.43;;;22.90;1.00;;;;;;5115508;28;20415;-52
2023/08/13 07:40:52;;;;;;;7.60;3.33;;;22.80;1.00;;;;;;5115743;28;20490;-51
2023/08/13 07:43:18;;;;;;;12.20;3.70;;;22.90;1.00;;;;;;5115262;28;20449;-52
2023/08/13 07:45:44;;;;;;;14.73;3.97;;;22.90;1.00;;;;;;5115215;28;20493;-51
2023/08/13 07:48:09;;;;;;;10.13;3.77;;;22.80;1.00;;;;;;5115360;28;20586;-52
2023/08/13 07:50:35;;;;;;;9.33;3.30;;;22.80;1.00;;;;;;5115267;28;20187;-51
2023/08/13 07:53:00;;;;;;;11.00;3.53;;;22.60;1.00;;;;;;5115142;28;20208;-52
2023/08/13 07:55:26;;;;;;;10.20;3.20;;;22.60;1.00;;;;;;5115447;28;20621;-51
2023/08/13 07:57:52;;;;;;;8.90;3.10;;;22.80;1.00;;;;;;5115460;28;20181;-53
2023/08/13 08:00:17;;;;;;;11.70;3.73;;;22.90;1.00;;;;;;5114821;28;20187;-51
2023/08/13 08:02:43;;;;;;;6.57;2.93;;;23.10;1.00;;;;;;5115288;28;20184;-52
2023/08/13 08:05:10;;;;;;;5.43;3.30;;;23.30;1.00;;;;;;5115178;28;20549;-51
2023/08/13 08:07:36;;;;;;;6.80;2.90;;;23.00;1.00;;;;;;5115282;28;20208;-51
2023/08/13 08:10:02;;;;;;;5.20;2.60;;;23.00;1.00;;;;;;5114838;28;20414;-51
2023/08/13 08:12:28;;;;;;;10.57;2.70;;;23.00;1.00;;;;;;5114675;28;20770;-51
2023/08/13 08:14:54;;;;;;;6.60;2.77;;;23.20;1.00;;;;;;5114897;28;20414;-52
2023/08/13 08:17:20;;;;;;;5.23;2.70;;;23.40;1.00;;;;;;5114229;28;20227;-52
2023/08/13 08:19:48;;;;;;;7.10;3.10;;;23.90;1.00;;;;;;5114294;28;20442;-52
2023/08/13 08:22:17;;;;;;;9.10;3.20;;;24.10;1.00;;;;;;5114908;28;20240;-52
2023/08/13 08:24:42;;;;;;;5.43;2.60;;;24.10;1.00;;;;;;5114735;28;20406;-52
2023/08/13 08:27:09;;;;;;;7.10;3.20;;;24.30;1.00;;;;;;5114605;28;20464;-52
2023/08/13 08:29:35;;;;;;;8.40;2.60;;;24.20;1.00;;;;;;5113938;28;20187;-52
2023/08/13 08:32:00;;;;;;;9.77;2.50;;;24.00;1.00;;;;;;5114611;28;20410;-52
2023/08/13 08:34:26;;;;;;;9.60;2.67;;;23.80;1.00;;;;;;5114940;28;20164;-52
2023/08/13 08:36:52;;;;;;;6.97;2.70;;;23.80;1.00;;;;;;5114707;28;20537;-52
2023/08/13 08:39:18;;;;;;;4.83;2.33;;;23.90;1.00;;;;;;5114324;28;20188;-51
2023/08/13 08:41:46;;;;;;;7.93;3.03;;;24.10;1.00;;;;;;5114251;28;20415;-52
2023/08/13 08:44:20;;;;;;;7.80;2.37;;;24.00;1.00;;;;;;5114268;28;20422;-51
2023/08/13 08:46:48;;;;;;;9.40;2.87;;;23.80;1.00;;;;;;5114320;28;20447;-52
2023/08/13 08:49:16;;;;;;;14.50;7.27;;;24.00;1.00;;;;;;5114448;28;20767;-51
2023/08/13 08:51:41;;;;;;;5.10;2.63;;;24.40;1.00;;;;;;5113743;28;20896;-52
2023/08/13 08:54:07;;;;;;;8.93;2.50;;;24.50;1.00;;;;;;5114099;28;20410;-50
2023/08/13 08:56:32;;;;;;;8.27;2.50;;;24.90;1.00;;;;;;5113717;28;20515;-53
2023/08/13 08:58:58;;;;;;;9.33;2.80;;;25.10;1.00;;;;;;5114730;28;20176;-53
2023/08/13 09:01:23;;;;;;;5.50;2.50;;;24.90;1.00;;;;;;5114734;28;20648;-53
2023/08/13 09:03:49;;;;;;;9.87;2.70;;;24.70;1.00;;;;;;5114394;28;20179;-53
2023/08/13 09:06:14;;;;;;;8.20;2.80;;;24.40;1.00;;;;;;5114513;28;20291;-52
2023/08/13 09:08:41;;;;;;;7.73;3.07;;;24.10;1.00;;;;;;5114152;28;20183;-52
2023/08/13 09:11:06;;;;;;;13.73;2.73;;;24.30;1.00;;;;;;5114054;28;20188;-52
2023/08/13 09:13:33;;;;;;;6.60;2.30;;;24.80;1.00;;;;;;5114065;28;20410;-52
2023/08/13 09:15:59;;;;;;;5.70;2.43;;;25.60;1.00;;;;;;5114408;28;20177;-53
2023/08/13 09:18:25;;;;;;;5.67;2.00;;;26.00;1.00;;;;;;5114287;28;20967;-53
2023/08/13 09:20:50;;;;;;;3.13;1.70;;;26.30;1.00;;;;;;5114006;28;20176;-53
2023/08/13 09:23:21;;;;;;;4.20;2.07;;;26.50;1.00;;;;;;5114051;28;20169;-53
2023/08/13 09:25:54;;;;;;;4.80;2.27;;;26.80;1.00;;;;;;5113970;28;20238;-52
2023/08/13 09:28:20;;;;;;;7.83;2.10;;;27.00;1.00;;;;;;5114023;28;20409;-52
2023/08/13 09:30:46;;;;;;;11.30;2.73;;;26.70;1.00;;;;;;5114011;28;20423;-54
2023/08/13 09:33:14;;;;;;;5.37;2.30;;;26.30;1.00;;;;;;5113965;28;20419;-53
2023/08/13 09:35:41;;;;;;;9.70;2.17;;;26.00;1.00;;;;;;5113940;28;20752;-53
2023/08/13 09:38:07;;;;;;;6.20;2.20;;;25.80;1.00;;;;;;5113545;28;20967;-52
2023/08/13 09:40:33;;;;;;;6.67;2.10;;;25.80;1.00;;;;;;5113755;28;20410;-53
2023/08/13 09:43:05;;;;;;;6.57;2.10;;;25.80;1.00;;;;;;5113941;28;20272;-54
2023/08/13 09:45:32;;;;;;;10.23;2.60;;;26.00;1.00;;;;;;5114077;28;20409;-54
2023/08/13 09:48:03;;;;;;;6.43;1.90;;;26.30;1.00;;;;;;5113643;28;20527;-54
2023/08/13 09:50:34;;;;;;;3.90;1.70;;;26.30;1.00;;;;;;5114024;28;20507;-54
2023/08/13 09:53:02;;;;;;;5.87;2.20;;;26.20;1.00;;;;;;5113840;28;20448;-54
2023/08/13 09:55:32;;;;;;;4.40;1.83;;;26.20;1.00;;;;;;5114053;28;20425;-54
2023/08/13 09:58:00;;;;;;;3.37;1.60;;;26.50;1.00;;;;;;5113935;28;20423;-52
2023/08/13 10:00:27;;;;;;;5.37;1.90;;;26.80;1.00;;;;;;5113735;28;20421;-54
2023/08/13 10:02:53;;;;;;;4.00;1.67;;;26.70;1.00;;;;;;5113321;28;20411;-53
2023/08/13 10:05:19;;;;;;;2.20;1.30;;;26.40;1.00;;;;;;5113455;28;20922;-54
2023/08/13 10:07:45;;;;;;;6.80;1.97;;;26.00;1.00;;;;;;5113045;28;20216;-53
2023/08/13 10:10:11;;;;;;;7.00;1.83;;;26.20;1.00;;;;;;5113298;28;20418;-53
2023/08/13 10:12:38;;;;;;;3.70;1.80;;;26.10;1.00;;;;;;5113317;28;20421;-53
2023/08/13 10:15:04;;;;;;;5.93;1.93;;;25.90;1.00;;;;;;5113258;28;20215;-52
2023/08/13 10:17:32;;;;;;;3.27;1.60;;;26.40;1.00;;;;;;5113044;28;20430;-53
2023/08/13 10:19:59;;;;;;;4.50;1.90;;;26.50;1.00;;;;;;5113593;28;20431;-53
2023/08/13 10:22:33;;;;;;;5.27;1.57;;;26.80;1.00;;;;;;5112642;28;20493;-54
2023/08/13 10:25:00;;;;;;;3.90;1.67;;;26.80;1.00;;;;;;5113431;28;20780;-54
2023/08/13 10:27:26;;;;;;;4.87;1.60;;;26.90;1.00;;;;;;5112926;28;20596;-53
2023/08/13 10:30:07;;;;;;;3.57;1.63;;;27.00;1.00;;;;;;5112929;28;20460;-55
2023/08/13 10:32:36;;;;;;;4.70;2.10;;;26.70;1.00;;;;;;5113085;28;20483;-52
2023/08/13 10:35:29;;;;;;;3.70;1.67;;;25.80;1.00;;;;;;5113303;28;20746;-53
2023/08/13 10:37:59;;;;;;;2.93;1.80;;;25.90;1.00;;;;;;5112535;28;20399;-53
2023/08/13 10:40:25;;;;;;;2.10;1.80;;;26.40;1.00;;;;;;5112345;28;20494;-53
2023/08/13 10:42:58;;;;;;;5.63;1.90;;;26.70;1.00;;;;;;5112457;28;20551;-54
2023/08/13 10:45:26;;;;;;;3.57;1.60;;;27.00;1.00;;;;;;5112593;28;20433;-54
2023/08/13 10:48:00;;;;;;;2.47;1.67;;;27.30;1.00;;;;;;5112419;28;20457;-54
2023/08/13 10:50:40;;;;;;;3.10;1.70;;;27.70;1.00;;;;;;5112518;28;20480;-54
2023/08/13 10:53:18;;;;;;;4.53;1.80;;;28.10;1.00;;;;;;5112217;28;20419;-53
2023/08/13 10:55:48;;;;;;;6.13;2.00;;;27.50;1.00;;;;;;5112251;28;20419;-54
2023/08/13 10:58:29;;;;;;;5.27;1.57;;;26.60;1.00;;;;;;5112571;28;20414;-54
2023/08/13 11:00:59;;;;;;;5.83;1.80;;;26.10;1.00;;;;;;5112030;28;20414;-53
2023/08/13 11:03:30;;;;;;;8.60;1.97;;;25.60;1.00;;;;;;5111516;28;20461;-52
2023/08/13 11:05:57;;;;;;;3.07;1.80;;;25.40;1.00;;;;;;5111985;28;20796;-53
2023/08/13 11:08:24;;;;;;;4.97;1.57;;;26.20;1.00;;;;;;5112193;28;20418;-53
2023/08/13 11:10:51;;;;;;;3.47;1.70;;;26.70;1.00;;;;;;5112351;28;20410;-54
2023/08/13 11:13:19;;;;;;;5.20;2.33;;;27.40;1.00;;;;;;5112007;28;20419;-54
2023/08/13 11:15:53;;;;;;;6.20;1.93;;;27.50;1.00;;;;;;5112018;28;20448;-53
2023/08/13 11:18:20;;;;;;;2.50;1.20;;;27.50;1.00;;;;;;5112331;28;20459;-52
2023/08/13 11:20:47;;;;;;;2.57;1.60;;;28.10;1.00;;;;;;5112042;28;20422;-53
2023/08/13 11:23:17;;;;;;;5.17;1.77;;;28.40;1.00;;;;;;5112140;28;20418;-53
2023/08/13 11:25:48;;;;;;;4.57;1.70;;;28.80;1.00;;;;;;5111898;28;20777;-53
2023/08/13 11:28:28;;;;;;;2.47;1.60;;;28.80;1.00;;;;;;5112051;28;20493;-54
2023/08/13 11:30:59;;;;;;;7.43;1.67;;;28.90;1.00;;;;;;5111935;28;20406;-55
2023/08/13 11:33:24;;;;;;;3.30;1.50;;;29.20;1.00;;;;;;5112147;28;20411;-55
2023/08/13 11:35:51;;;;;;;4.50;1.50;;;29.00;1.00;;;;;;5111826;28;20426;-54
2023/08/13 11:38:17;;;;;;;4.07;1.50;;;28.20;1.00;;;;;;5112038;28;20411;-54
2023/08/13 11:40:42;;;;;;;3.90;1.33;;;27.40;1.00;;;;;;5112191;28;20421;-54
2023/08/13 11:43:10;;;;;;;2.43;1.47;;;27.10;1.00;;;;;;5112076;28;20633;-53
2023/08/13 11:45:36;;;;;;;15.37;2.23;;;27.20;1.00;;;;;;5112087;28;20188;-53
2023/08/13 11:48:13;;;;;;;6.13;1.70;;;27.40;1.00;;;;;;5111944;28;20482;-54
2023/08/13 11:50:40;;;;;;;3.10;1.70;;;27.10;1.00;;;;;;5111987;28;20434;-53
2023/08/13 11:53:14;;;;;;;4.03;1.47;;;27.20;1.00;;;;;;5114191;28;20399;-53
2023/08/13 11:55:43;;;;;;;6.37;1.70;;;27.80;1.00;;;;;;5115556;28;20418;-53
2023/08/13 11:58:09;;;;;;;5.03;1.70;;;27.50;1.00;;;;;;5115561;28;20407;-54
2023/08/13 12:00:36;;;;;;;5.57;1.50;;;27.10;1.00;;;;;;5115437;28;20418;-54
2023/08/13 12:03:01;;;;;;;4.47;1.70;;;27.70;1.00;;;;;;5115697;28;20272;-53
2023/08/13 12:05:29;;;;;;;6.47;1.90;;;27.90;1.00;;;;;;5115361;28;20442;-52
2023/08/13 12:07:59;;;;;;;2.60;1.40;;;28.00;1.00;;;;;;5115068;28;20307;-53
2023/08/13 12:10:26;;;;;;;4.07;1.47;;;28.10;1.00;;;;;;5115352;28;20411;-54
2023/08/13 12:12:51;;;;;;;4.30;1.50;;;28.30;1.00;;;;;;5115418;28;20501;-54
2023/08/13 12:15:20;;;;;;;5.53;2.47;;;28.30;1.00;;;;;;5115227;28;20834;-54
2023/08/13 12:17:46;;;;;;;6.00;1.97;;;28.20;1.00;;;;;;5115198;28;20196;-54
2023/08/13 12:20:12;;;;;;;4.10;1.93;;;28.30;1.00;;;;;;5114788;28;20407;-53
2023/08/13 12:22:38;;;;;;;4.10;1.33;;;29.00;1.00;;;;;;5114688;28;20241;-54
2023/08/13 12:25:05;;;;;;;3.47;1.40;;;29.50;1.00;;;;;;5115443;28;20811;-54
2023/08/13 12:27:31;;;;;;;3.60;1.57;;;29.60;1.00;;;;;;5115225;28;20493;-54
2023/08/13 12:29:57;;;;;;;2.43;1.40;;;29.80;1.00;;;;;;5096582;28;20418;-54
2023/08/13 12:32:22;;;;;;;5.97;1.60;;;29.40;1.00;;;;;;5114908;28;20188;-54
2023/08/13 12:34:48;;;;;;;3.20;1.30;;;29.00;1.00;;;;;;5114632;28;20173;-54
2023/08/13 12:37:14;;;;;;;3.23;1.57;;;29.40;1.00;;;;;;5114458;28;20184;-54
2023/08/13 12:39:40;;;;;;;3.60;1.30;;;29.70;1.00;;;;;;5096268;28;20271;-53
2023/08/13 12:42:05;;;;;;;2.13;1.20;;;29.70;1.00;;;;;;5114526;28;20181;-53
2023/08/13 12:44:31;;;;;;;2.33;1.40;;;29.50;1.00;;;;;;5114646;28;20180;-55